sensor_id;sensor_type;location;lat;lon;timestamp;temperature;humidity
9762;DHT22;4920;49.594;11.022;2023-05-07T00:00:32;13.60;99.90
9762;DHT22;4920;49.594;11.022;2023-05-07T00:03:01;13.70;99.90
9762;DHT22;4920;49.594;11.022;2023-05-07T00:05:30;13.80;99.90
9762;DHT22;4920;49.594;11.022;2023-05-07T00:08:00;13.80;99.90
9762;DHT22;4920;49.594;11.022;2023-05-07T00:10:29;13.80;99.90
9762;DHT22;4920;49.594;11.022;2023-05-07T00:12:58;13.80;99.90
9762;DHT22;4920;49.594;11.022;2023-05-07T00:15:27;13.80;99.90
9762;DHT22;4920;49.594;11.022;2023-05-07T00:17:56;13.80;99.90
9762;DHT22;4920;49.594;11.022;2023-05-07T00:20:26;13.70;99.90
9762;DHT22;4920;49.594;11.022;2023-05-07T00:22:55;13.70;99.90
9762;DHT22;4920;49.594;11.022;2023-05-07T00:25:25;13.70;99.90
9762;DHT22;4920;49.594;11.022;2023-05-07T00:27:54;13.70;99.90
9762;DHT22;4920;49.594;11.022;2023-05-07T00:30:23;13.70;99.90
9762;DHT22;4920;49.594;11.022;2023-05-07T00:32:51;13.70;99.90
9762;DHT22;4920;49.594;11.022;2023-05-07T00:35:21;13.70;99.90
9762;DHT22;4920;49.594;11.022;2023-05-07T00:37:49;13.70;99.90
9762;DHT22;4920;49.594;11.022;2023-05-07T00:40:18;13.70;99.90
9762;DHT22;4920;49.594;11.022;2023-05-07T00:42:49;13.70;99.90
9762;DHT22;4920;49.594;11.022;2023-05-07T00:45:20;13.70;99.90
9762;DHT22;4920;49.594;11.022;2023-05-07T00:47:49;13.70;99.90
9762;DHT22;4920;49.594;11.022;2023-05-07T00:50:21;13.70;99.90
9762;DHT22;4920;49.594;11.022;2023-05-07T00:52:51;13.60;99.90
9762;DHT22;4920;49.594;11.022;2023-05-07T00:55:21;13.60;99.90
9762;DHT22;4920;49.594;11.022;2023-05-07T00:57:52;13.70;99.90
9762;DHT22;4920;49.594;11.022;2023-05-07T01:00:22;13.70;99.90
9762;DHT22;4920;49.594;11.022;2023-05-07T01:02:52;13.60;99.90
9762;DHT22;4920;49.594;11.022;2023-05-07T01:05:23;13.60;99.90
9762;DHT22;4920;49.594;11.022;2023-05-07T01:07:54;13.60;99.90
9762;DHT22;4920;49.594;11.022;2023-05-07T01:10:24;13.60;99.90
9762;DHT22;4920;49.594;11.022;2023-05-07T01:12:54;13.60;99.90
9762;DHT22;4920;49.594;11.022;2023-05-07T01:15:23;13.50;99.90
9762;DHT22;4920;49.594;11.022;2023-05-07T01:17:52;13.50;99.90
9762;DHT22;4920;49.594;11.022;2023-05-07T01:20:28;13.50;99.90
9762;DHT22;4920;49.594;11.022;2023-05-07T01:22:59;13.60;99.90
9762;DHT22;4920;49.594;11.022;2023-05-07T01:25:29;13.50;99.90
9762;DHT22;4920;49.594;11.022;2023-05-07T01:28:00;13.40;99.90
9762;DHT22;4920;49.594;11.022;2023-05-07T01:30:34;13.40;99.90
9762;DHT22;4920;49.594;11.022;2023-05-07T01:33:09;13.40;99.90
9762;DHT22;4920;49.594;11.022;2023-05-07T01:35:41;13.40;99.90
9762;DHT22;4920;49.594;11.022;2023-05-07T01:38:14;13.40;99.90
9762;DHT22;4920;49.594;11.022;2023-05-07T01:40:43;13.30;99.90
9762;DHT22;4920;49.594;11.022;2023-05-07T01:43:13;13.30;99.90
9762;DHT22;4920;49.594;11.022;2023-05-07T01:45:42;13.30;99.90
9762;DHT22;4920;49.594;11.022;2023-05-07T01:48:14;13.30;99.90
9762;DHT22;4920;49.594;11.022;2023-05-07T01:50:44;13.40;99.90
9762;DHT22;4920;49.594;11.022;2023-05-07T01:53:15;13.50;99.90
9762;DHT22;4920;49.594;11.022;2023-05-07T01:55:44;13.50;99.90
9762;DHT22;4920;49.594;11.022;2023-05-07T01:58:15;13.50;99.90
9762;DHT22;4920;49.594;11.022;2023-05-07T02:00:44;13.50;99.90
9762;DHT22;4920;49.594;11.022;2023-05-07T02:03:14;13.60;99.90
9762;DHT22;4920;49.594;11.022;2023-05-07T02:05:54;13.60;99.90
9762;DHT22;4920;49.594;11.022;2023-05-07T02:08:35;13.60;99.90
9762;DHT22;4920;49.594;11.022;2023-05-07T02:11:04;13.60;99.90
9762;DHT22;4920;49.594;11.022;2023-05-07T02:13:34;13.50;99.90
9762;DHT22;4920;49.594;11.022;2023-05-07T02:16:04;13.50;99.90
9762;DHT22;4920;49.594;11.022;2023-05-07T02:18:34;13.50;99.90
9762;DHT22;4920;49.594;11.022;2023-05-07T02:21:03;13.50;99.90
9762;DHT22;4920;49.594;11.022;2023-05-07T02:23:34;13.50;99.90
9762;DHT22;4920;49.594;11.022;2023-05-07T02:26:04;13.40;99.90
9762;DHT22;4920;49.594;11.022;2023-05-07T02:28:33;13.40;99.90
9762;DHT22;4920;49.594;11.022;2023-05-07T02:31:04;13.40;99.90
9762;DHT22;4920;49.594;11.022;2023-05-07T02:33:34;13.40;99.90
9762;DHT22;4920;49.594;11.022;2023-05-07T02:36:07;13.30;99.90
9762;DHT22;4920;49.594;11.022;2023-05-07T02:38:44;13.30;99.90
9762;DHT22;4920;49.594;11.022;2023-05-07T02:41:13;13.40;99.90
9762;DHT22;4920;49.594;11.022;2023-05-07T02:43:42;13.40;99.90
9762;DHT22;4920;49.594;11.022;2023-05-07T02:46:11;13.30;99.90
9762;DHT22;4920;49.594;11.022;2023-05-07T02:48:45;13.30;99.90
9762;DHT22;4920;49.594;11.022;2023-05-07T02:51:14;13.20;99.90
9762;DHT22;4920;49.594;11.022;2023-05-07T02:53:44;13.20;99.90
9762;DHT22;4920;49.594;11.022;2023-05-07T02:56:13;13.20;99.90
9762;DHT22;4920;49.594;11.022;2023-05-07T02:58:42;13.10;99.90
9762;DHT22;4920;49.594;11.022;2023-05-07T03:01:12;13.10;99.90
9762;DHT22;4920;49.594;11.022;2023-05-07T03:03:48;13.00;99.90
9762;DHT22;4920;49.594;11.022;2023-05-07T03:06:17;12.90;99.90
9762;DHT22;4920;49.594;11.022;2023-05-07T03:08:48;12.90;99.90
9762;DHT22;4920;49.594;11.022;2023-05-07T03:11:16;12.80;99.90
9762;DHT22;4920;49.594;11.022;2023-05-07T03:13:45;12.80;99.90
9762;DHT22;4920;49.594;11.022;2023-05-07T03:16:18;12.80;99.90
9762;DHT22;4920;49.594;11.022;2023-05-07T03:18:47;12.80;99.90
9762;DHT22;4920;49.594;11.022;2023-05-07T03:21:16;12.80;99.90
9762;DHT22;4920;49.594;11.022;2023-05-07T03:23:44;12.80;99.90
9762;DHT22;4920;49.594;11.022;2023-05-07T03:26:15;12.70;99.90
9762;DHT22;4920;49.594;11.022;2023-05-07T03:28:44;12.60;99.90
9762;DHT22;4920;49.594;11.022;2023-05-07T03:31:16;12.50;99.90
9762;DHT22;4920;49.594;11.022;2023-05-07T03:33:51;12.50;99.90
9762;DHT22;4920;49.594;11.022;2023-05-07T03:36:20;12.30;99.90
9762;DHT22;4920;49.594;11.022;2023-05-07T03:38:50;12.30;99.90
9762;DHT22;4920;49.594;11.022;2023-05-07T03:41:23;12.20;99.90
9762;DHT22;4920;49.594;11.022;2023-05-07T03:43:53;12.20;99.90
9762;DHT22;4920;49.594;11.022;2023-05-07T03:46:22;12.10;99.90
9762;DHT22;4920;49.594;11.022;2023-05-07T03:48:53;12.10;99.90
9762;DHT22;4920;49.594;11.022;2023-05-07T03:51:22;12.00;99.90
9762;DHT22;4920;49.594;11.022;2023-05-07T03:53:51;12.00;99.90
9762;DHT22;4920;49.594;11.022;2023-05-07T03:56:23;12.00;99.90
9762;DHT22;4920;49.594;11.022;2023-05-07T03:58:56;11.90;99.90
9762;DHT22;4920;49.594;11.022;2023-05-07T04:01:25;11.90;99.90
9762;DHT22;4920;49.594;11.022;2023-05-07T04:03:54;11.90;99.90
9762;DHT22;4920;49.594;11.022;2023-05-07T04:06:24;11.90;99.90
9762;DHT22;4920;49.594;11.022;2023-05-07T04:08:53;12.00;99.90
9762;DHT22;4920;49.594;11.022;2023-05-07T04:11:23;12.10;99.90
9762;DHT22;4920;49.594;11.022;2023-05-07T04:13:52;12.20;99.90
9762;DHT22;4920;49.594;11.022;2023-05-07T04:16:23;12.30;99.90
9762;DHT22;4920;49.594;11.022;2023-05-07T04:18:53;12.40;99.90
9762;DHT22;4920;49.594;11.022;2023-05-07T04:21:22;12.50;99.90
9762;DHT22;4920;49.594;11.022;2023-05-07T04:23:51;12.60;99.90
9762;DHT22;4920;49.594;11.022;2023-05-07T04:26:20;12.70;99.90
9762;DHT22;4920;49.594;11.022;2023-05-07T04:28:52;12.80;99.90
9762;DHT22;4920;49.594;11.022;2023-05-07T04:31:20;12.90;99.90
9762;DHT22;4920;49.594;11.022;2023-05-07T04:33:52;13.00;99.90
9762;DHT22;4920;49.594;11.022;2023-05-07T04:36:21;13.20;99.90
9762;DHT22;4920;49.594;11.022;2023-05-07T04:38:57;13.20;99.90
9762;DHT22;4920;49.594;11.022;2023-05-07T04:41:26;13.30;99.90
9762;DHT22;4920;49.594;11.022;2023-05-07T04:43:57;13.40;99.90
9762;DHT22;4920;49.594;11.022;2023-05-07T04:46:30;13.50;99.90
9762;DHT22;4920;49.594;11.022;2023-05-07T04:48:59;13.60;99.90
9762;DHT22;4920;49.594;11.022;2023-05-07T04:51:27;13.70;99.90
9762;DHT22;4920;49.594;11.022;2023-05-07T04:53:56;14.00;99.90
9762;DHT22;4920;49.594;11.022;2023-05-07T04:56:28;14.20;99.90
9762;DHT22;4920;49.594;11.022;2023-05-07T04:59:00;14.50;99.90
9762;DHT22;4920;49.594;11.022;2023-05-07T05:01:30;14.80;99.90
9762;DHT22;4920;49.594;11.022;2023-05-07T05:03:59;15.30;99.90
9762;DHT22;4920;49.594;11.022;2023-05-07T05:06:29;15.90;99.90
9762;DHT22;4920;49.594;11.022;2023-05-07T05:08:58;16.50;99.90
9762;DHT22;4920;49.594;11.022;2023-05-07T05:11:29;17.20;99.90
9762;DHT22;4920;49.594;11.022;2023-05-07T05:14:00;17.70;99.90
9762;DHT22;4920;49.594;11.022;2023-05-07T05:16:29;18.00;99.90
9762;DHT22;4920;49.594;11.022;2023-05-07T05:18:59;18.10;99.90
9762;DHT22;4920;49.594;11.022;2023-05-07T05:21:28;18.20;99.90
9762;DHT22;4920;49.594;11.022;2023-05-07T05:24:03;18.20;99.90
9762;DHT22;4920;49.594;11.022;2023-05-07T05:26:32;18.00;99.90
9762;DHT22;4920;49.594;11.022;2023-05-07T05:29:03;17.80;99.90
9762;DHT22;4920;49.594;11.022;2023-05-07T05:31:32;17.50;99.90
9762;DHT22;4920;49.594;11.022;2023-05-07T05:34:02;17.20;99.90
9762;DHT22;4920;49.594;11.022;2023-05-07T05:36:31;16.90;99.90
9762;DHT22;4920;49.594;11.022;2023-05-07T05:39:01;16.60;99.90
9762;DHT22;4920;49.594;11.022;2023-05-07T05:41:30;16.40;99.90
9762;DHT22;4920;49.594;11.022;2023-05-07T05:43:59;16.20;99.90
9762;DHT22;4920;49.594;11.022;2023-05-07T05:46:30;16.20;99.90
9762;DHT22;4920;49.594;11.022;2023-05-07T05:49:01;16.30;99.90
9762;DHT22;4920;49.594;11.022;2023-05-07T05:51:31;16.50;99.90
9762;DHT22;4920;49.594;11.022;2023-05-07T05:53:59;16.60;99.90
9762;DHT22;4920;49.594;11.022;2023-05-07T05:56:29;16.60;99.90
9762;DHT22;4920;49.594;11.022;2023-05-07T05:58:57;16.60;99.90
9762;DHT22;4920;49.594;11.022;2023-05-07T06:01:26;16.70;99.90
9762;DHT22;4920;49.594;11.022;2023-05-07T06:03:59;16.70;99.90
9762;DHT22;4920;49.594;11.022;2023-05-07T06:06:29;16.90;99.90
9762;DHT22;4920;49.594;11.022;2023-05-07T06:08:59;17.00;99.90
9762;DHT22;4920;49.594;11.022;2023-05-07T06:11:35;17.00;99.90
9762;DHT22;4920;49.594;11.022;2023-05-07T06:14:05;17.00;99.90
9762;DHT22;4920;49.594;11.022;2023-05-07T06:16:35;17.00;99.90
9762;DHT22;4920;49.594;11.022;2023-05-07T06:19:08;17.10;99.90
9762;DHT22;4920;49.594;11.022;2023-05-07T06:21:39;17.20;99.90
9762;DHT22;4920;49.594;11.022;2023-05-07T06:24:08;17.20;99.90
9762;DHT22;4920;49.594;11.022;2023-05-07T06:26:38;17.30;99.90
9762;DHT22;4920;49.594;11.022;2023-05-07T06:29:08;17.30;99.90
9762;DHT22;4920;49.594;11.022;2023-05-07T06:31:39;17.30;99.90
9762;DHT22;4920;49.594;11.022;2023-05-07T06:34:13;17.50;99.90
9762;DHT22;4920;49.594;11.022;2023-05-07T06:36:42;17.50;99.90
9762;DHT22;4920;49.594;11.022;2023-05-07T06:39:20;17.60;99.90
9762;DHT22;4920;49.594;11.022;2023-05-07T06:41:50;17.60;99.90
9762;DHT22;4920;49.594;11.022;2023-05-07T06:44:25;17.50;99.90
9762;DHT22;4920;49.594;11.022;2023-05-07T06:47:11;17.50;99.90
9762;DHT22;4920;49.594;11.022;2023-05-07T06:49:46;17.50;99.90
9762;DHT22;4920;49.594;11.022;2023-05-07T06:52:17;17.60;99.90
9762;DHT22;4920;49.594;11.022;2023-05-07T06:54:49;17.60;99.90
9762;DHT22;4920;49.594;11.022;2023-05-07T06:57:20;17.70;99.90
9762;DHT22;4920;49.594;11.022;2023-05-07T06:59:49;17.90;99.90
9762;DHT22;4920;49.594;11.022;2023-05-07T07:02:19;18.10;99.90
9762;DHT22;4920;49.594;11.022;2023-05-07T07:04:50;18.30;99.90
9762;DHT22;4920;49.594;11.022;2023-05-07T07:07:19;18.50;99.90
9762;DHT22;4920;49.594;11.022;2023-05-07T07:09:49;18.40;99.90
9762;DHT22;4920;49.594;11.022;2023-05-07T07:12:19;18.60;99.90
9762;DHT22;4920;49.594;11.022;2023-05-07T07:14:48;18.90;99.90
9762;DHT22;4920;49.594;11.022;2023-05-07T07:17:17;19.20;99.90
9762;DHT22;4920;49.594;11.022;2023-05-07T07:19:45;19.40;99.90
9762;DHT22;4920;49.594;11.022;2023-05-07T07:22:16;19.50;99.90
9762;DHT22;4920;49.594;11.022;2023-05-07T07:24:45;19.60;99.90
9762;DHT22;4920;49.594;11.022;2023-05-07T07:27:16;19.60;99.90
9762;DHT22;4920;49.594;11.022;2023-05-07T07:29:45;19.60;99.90
9762;DHT22;4920;49.594;11.022;2023-05-07T07:32:13;19.60;99.90
9762;DHT22;4920;49.594;11.022;2023-05-07T07:34:43;19.80;99.90
9762;DHT22;4920;49.594;11.022;2023-05-07T07:37:12;20.00;99.90
9762;DHT22;4920;49.594;11.022;2023-05-07T07:39:43;20.20;99.90
9762;DHT22;4920;49.594;11.022;2023-05-07T07:42:12;20.10;99.90
9762;DHT22;4920;49.594;11.022;2023-05-07T07:44:41;20.00;99.90
9762;DHT22;4920;49.594;11.022;2023-05-07T07:47:12;20.00;99.90
9762;DHT22;4920;49.594;11.022;2023-05-07T07:49:42;20.10;99.90
9762;DHT22;4920;49.594;11.022;2023-05-07T07:52:12;20.20;99.90
9762;DHT22;4920;49.594;11.022;2023-05-07T07:54:44;20.20;99.90
9762;DHT22;4920;49.594;11.022;2023-05-07T07:57:13;20.10;99.90
9762;DHT22;4920;49.594;11.022;2023-05-07T07:59:42;20.10;99.90
9762;DHT22;4920;49.594;11.022;2023-05-07T08:02:12;20.20;99.90
9762;DHT22;4920;49.594;11.022;2023-05-07T08:04:41;20.30;99.90
9762;DHT22;4920;49.594;11.022;2023-05-07T08:07:11;20.30;99.90
9762;DHT22;4920;49.594;11.022;2023-05-07T08:09:44;20.30;99.90
9762;DHT22;4920;49.594;11.022;2023-05-07T08:12:14;20.10;99.90
9762;DHT22;4920;49.594;11.022;2023-05-07T08:14:43;20.00;99.90
9762;DHT22;4920;49.594;11.022;2023-05-07T08:17:12;19.90;99.90
9762;DHT22;4920;49.594;11.022;2023-05-07T08:19:44;20.00;99.90
9762;DHT22;4920;49.594;11.022;2023-05-07T08:22:14;20.00;99.90
9762;DHT22;4920;49.594;11.022;2023-05-07T08:24:45;20.10;99.90
9762;DHT22;4920;49.594;11.022;2023-05-07T08:27:14;20.20;99.90
9762;DHT22;4920;49.594;11.022;2023-05-07T08:29:42;20.30;99.90
9762;DHT22;4920;49.594;11.022;2023-05-07T08:32:16;20.50;99.90
9762;DHT22;4920;49.594;11.022;2023-05-07T08:34:45;20.50;99.90
9762;DHT22;4920;49.594;11.022;2023-05-07T08:37:14;20.70;99.90
9762;DHT22;4920;49.594;11.022;2023-05-07T08:39:45;21.00;99.90
9762;DHT22;4920;49.594;11.022;2023-05-07T08:42:21;21.10;99.90
9762;DHT22;4920;49.594;11.022;2023-05-07T08:44:52;21.50;99.90
9762;DHT22;4920;49.594;11.022;2023-05-07T08:47:29;21.70;99.90
9762;DHT22;4920;49.594;11.022;2023-05-07T08:50:01;21.80;99.90
9762;DHT22;4920;49.594;11.022;2023-05-07T08:52:30;21.80;99.90
9762;DHT22;4920;49.594;11.022;2023-05-07T08:55:02;21.80;99.90
9762;DHT22;4920;49.594;11.022;2023-05-07T08:57:31;21.70;99.90
9762;DHT22;4920;49.594;11.022;2023-05-07T09:00:01;21.60;99.90
9762;DHT22;4920;49.594;11.022;2023-05-07T09:02:31;21.30;99.90
9762;DHT22;4920;49.594;11.022;2023-05-07T09:04:59;21.20;99.90
9762;DHT22;4920;49.594;11.022;2023-05-07T09:07:28;21.20;99.90
9762;DHT22;4920;49.594;11.022;2023-05-07T09:10:02;21.30;99.90
9762;DHT22;4920;49.594;11.022;2023-05-07T09:12:34;21.40;99.90
9762;DHT22;4920;49.594;11.022;2023-05-07T09:15:06;21.50;99.90
9762;DHT22;4920;49.594;11.022;2023-05-07T09:17:35;21.70;99.90
9762;DHT22;4920;49.594;11.022;2023-05-07T09:23:54;21.50;99.90
9762;DHT22;4920;49.594;11.022;2023-05-07T09:26:31;21.40;99.90
9762;DHT22;4920;49.594;11.022;2023-05-07T09:29:02;21.40;99.90
9762;DHT22;4920;49.594;11.022;2023-05-07T09:31:31;21.50;99.90
9762;DHT22;4920;49.594;11.022;2023-05-07T09:34:01;21.80;99.90
9762;DHT22;4920;49.594;11.022;2023-05-07T09:36:32;22.30;99.90
9762;DHT22;4920;49.594;11.022;2023-05-07T09:39:01;22.70;99.90
9762;DHT22;4920;49.594;11.022;2023-05-07T09:41:32;22.90;99.90
9762;DHT22;4920;49.594;11.022;2023-05-07T09:44:12;23.00;99.90
9762;DHT22;4920;49.594;11.022;2023-05-07T09:46:51;22.90;99.90
9762;DHT22;4920;49.594;11.022;2023-05-07T09:49:29;22.60;99.90
9762;DHT22;4920;49.594;11.022;2023-05-07T09:52:04;22.50;99.90
9762;DHT22;4920;49.594;11.022;2023-05-07T09:54:40;22.70;99.90
9762;DHT22;4920;49.594;11.022;2023-05-07T09:57:12;22.90;99.90
9762;DHT22;4920;49.594;11.022;2023-05-07T09:59:46;22.90;99.90
9762;DHT22;4920;49.594;11.022;2023-05-07T10:02:19;23.00;99.90
9762;DHT22;4920;49.594;11.022;2023-05-07T10:04:52;23.00;99.90
9762;DHT22;4920;49.594;11.022;2023-05-07T10:07:28;23.20;99.90
9762;DHT22;4920;49.594;11.022;2023-05-07T10:10:05;23.30;99.90
9762;DHT22;4920;49.594;11.022;2023-05-07T10:12:40;23.40;99.90
9762;DHT22;4920;49.594;11.022;2023-05-07T10:15:18;23.00;99.90
9762;DHT22;4920;49.594;11.022;2023-05-07T10:17:53;22.60;99.90
9762;DHT22;4920;49.594;11.022;2023-05-07T10:20:25;22.50;99.90
9762;DHT22;4920;49.594;11.022;2023-05-07T10:22:56;22.60;99.90
9762;DHT22;4920;49.594;11.022;2023-05-07T10:25:33;22.80;99.90
9762;DHT22;4920;49.594;11.022;2023-05-07T10:28:10;23.10;99.90
9762;DHT22;4920;49.594;11.022;2023-05-07T10:30:51;23.30;99.90
9762;DHT22;4920;49.594;11.022;2023-05-07T10:33:35;23.70;99.90
9762;DHT22;4920;49.594;11.022;2023-05-07T10:36:05;24.00;99.90
9762;DHT22;4920;49.594;11.022;2023-05-07T10:38:36;24.10;99.90
9762;DHT22;4920;49.594;11.022;2023-05-07T10:41:05;24.00;99.90
9762;DHT22;4920;49.594;11.022;2023-05-07T10:43:41;24.10;99.90
9762;DHT22;4920;49.594;11.022;2023-05-07T10:46:18;24.10;99.80
9762;DHT22;4920;49.594;11.022;2023-05-07T10:49:07;24.20;99.00
9762;DHT22;4920;49.594;11.022;2023-05-07T10:51:41;24.30;99.20
9762;DHT22;4920;49.594;11.022;2023-05-07T10:54:22;24.40;98.70
9762;DHT22;4920;49.594;11.022;2023-05-07T10:57:32;24.60;98.40
9762;DHT22;4920;49.594;11.022;2023-05-07T11:00:42;24.50;97.20
9762;DHT22;4920;49.594;11.022;2023-05-07T11:03:20;24.10;97.10
9762;DHT22;4920;49.594;11.022;2023-05-07T11:06:11;23.80;97.20
9762;DHT22;4920;49.594;11.022;2023-05-07T11:09:02;23.40;97.70
9762;DHT22;4920;49.594;11.022;2023-05-07T11:11:50;23.30;97.90
9762;DHT22;4920;49.594;11.022;2023-05-07T11:14:45;23.40;97.90
9762;DHT22;4920;49.594;11.022;2023-05-07T11:17:27;23.40;97.60
9762;DHT22;4920;49.594;11.022;2023-05-07T11:20:10;23.30;98.10
9762;DHT22;4920;49.594;11.022;2023-05-07T11:22:47;23.50;98.20
9762;DHT22;4920;49.594;11.022;2023-05-07T11:25:26;23.80;97.20
9762;DHT22;4920;49.594;11.022;2023-05-07T11:28:07;24.20;97.40
9762;DHT22;4920;49.594;11.022;2023-05-07T11:30:43;24.40;96.30
9762;DHT22;4920;49.594;11.022;2023-05-07T11:33:18;24.40;95.90
9762;DHT22;4920;49.594;11.022;2023-05-07T11:35:50;24.20;96.70
9762;DHT22;4920;49.594;11.022;2023-05-07T11:38:22;24.00;95.30
9762;DHT22;4920;49.594;11.022;2023-05-07T11:40:51;23.80;94.70
9762;DHT22;4920;49.594;11.022;2023-05-07T11:43:20;23.40;95.10
9762;DHT22;4920;49.594;11.022;2023-05-07T11:45:49;23.20;96.00
9762;DHT22;4920;49.594;11.022;2023-05-07T11:48:21;23.00;96.30
9762;DHT22;4920;49.594;11.022;2023-05-07T11:50:51;23.20;95.70
9762;DHT22;4920;49.594;11.022;2023-05-07T11:53:20;23.30;94.80
9762;DHT22;4920;49.594;11.022;2023-05-07T11:55:52;23.40;93.90
9762;DHT22;4920;49.594;11.022;2023-05-07T11:58:22;23.40;94.00
9762;DHT22;4920;49.594;11.022;2023-05-07T12:00:51;23.40;94.50
9762;DHT22;4920;49.594;11.022;2023-05-07T12:03:22;23.40;95.00
9762;DHT22;4920;49.594;11.022;2023-05-07T12:05:51;23.60;95.10
9762;DHT22;4920;49.594;11.022;2023-05-07T12:08:20;24.10;95.00
9762;DHT22;4920;49.594;11.022;2023-05-07T12:10:50;24.40;94.70
9762;DHT22;4920;49.594;11.022;2023-05-07T12:13:20;24.50;94.20
9762;DHT22;4920;49.594;11.022;2023-05-07T12:15:50;24.50;94.00
9762;DHT22;4920;49.594;11.022;2023-05-07T12:18:20;24.50;94.10
9762;DHT22;4920;49.594;11.022;2023-05-07T12:20:50;24.40;93.50
9762;DHT22;4920;49.594;11.022;2023-05-07T12:23:21;24.30;93.50
9762;DHT22;4920;49.594;11.022;2023-05-07T12:25:50;24.20;93.50
9762;DHT22;4920;49.594;11.022;2023-05-07T12:28:19;23.80;93.50
9762;DHT22;4920;49.594;11.022;2023-05-07T12:30:49;23.60;94.40
9762;DHT22;4920;49.594;11.022;2023-05-07T12:33:19;23.40;94.00
9762;DHT22;4920;49.594;11.022;2023-05-07T12:35:54;23.20;93.80
9762;DHT22;4920;49.594;11.022;2023-05-07T12:38:23;23.10;93.80
9762;DHT22;4920;49.594;11.022;2023-05-07T12:40:54;23.00;94.10
9762;DHT22;4920;49.594;11.022;2023-05-07T12:43:25;23.00;94.20
9762;DHT22;4920;49.594;11.022;2023-05-07T12:45:55;23.10;94.00
9762;DHT22;4920;49.594;11.022;2023-05-07T12:48:25;23.20;93.70
9762;DHT22;4920;49.594;11.022;2023-05-07T12:50:56;23.40;93.50
9762;DHT22;4920;49.594;11.022;2023-05-07T12:53:26;23.60;93.30
9762;DHT22;4920;49.594;11.022;2023-05-07T12:55:57;23.80;93.00
9762;DHT22;4920;49.594;11.022;2023-05-07T12:58:28;23.80;93.20
9762;DHT22;4920;49.594;11.022;2023-05-07T13:01:00;23.80;92.20
9762;DHT22;4920;49.594;11.022;2023-05-07T13:03:31;23.40;91.70
9762;DHT22;4920;49.594;11.022;2023-05-07T13:06:03;23.20;92.00
9762;DHT22;4920;49.594;11.022;2023-05-07T13:08:33;23.10;91.60
9762;DHT22;4920;49.594;11.022;2023-05-07T13:11:03;23.20;92.20
9762;DHT22;4920;49.594;11.022;2023-05-07T13:13:33;23.20;92.50
9762;DHT22;4920;49.594;11.022;2023-05-07T13:16:03;23.20;92.90
9762;DHT22;4920;49.594;11.022;2023-05-07T13:18:34;23.20;92.40
9762;DHT22;4920;49.594;11.022;2023-05-07T13:21:08;23.20;92.40
9762;DHT22;4920;49.594;11.022;2023-05-07T13:23:39;23.30;92.70
9762;DHT22;4920;49.594;11.022;2023-05-07T13:26:11;23.40;93.30
9762;DHT22;4920;49.594;11.022;2023-05-07T13:28:54;23.60;92.50
9762;DHT22;4920;49.594;11.022;2023-05-07T13:31:23;23.80;91.50
9762;DHT22;4920;49.594;11.022;2023-05-07T13:33:52;24.10;91.60
9762;DHT22;4920;49.594;11.022;2023-05-07T13:36:30;24.30;93.70
9762;DHT22;4920;49.594;11.022;2023-05-07T13:39:02;24.60;92.50
9762;DHT22;4920;49.594;11.022;2023-05-07T13:41:31;24.80;90.60
9762;DHT22;4920;49.594;11.022;2023-05-07T13:47:44;25.00;89.20
9762;DHT22;4920;49.594;11.022;2023-05-07T13:50:13;24.90;89.10
9762;DHT22;4920;49.594;11.022;2023-05-07T13:52:44;24.80;87.80
9762;DHT22;4920;49.594;11.022;2023-05-07T13:55:17;24.50;88.30
9762;DHT22;4920;49.594;11.022;2023-05-07T13:57:47;24.50;88.90
9762;DHT22;4920;49.594;11.022;2023-05-07T14:00:15;24.60;88.90
9762;DHT22;4920;49.594;11.022;2023-05-07T14:02:45;24.70;87.10
9762;DHT22;4920;49.594;11.022;2023-05-07T14:05:13;24.70;86.80
9762;DHT22;4920;49.594;11.022;2023-05-07T14:07:44;24.70;85.50
9762;DHT22;4920;49.594;11.022;2023-05-07T14:10:12;24.80;85.20
9762;DHT22;4920;49.594;11.022;2023-05-07T14:12:41;24.80;84.10
9762;DHT22;4920;49.594;11.022;2023-05-07T14:15:13;24.80;84.40
9762;DHT22;4920;49.594;11.022;2023-05-07T14:17:42;24.90;85.20
9762;DHT22;4920;49.594;11.022;2023-05-07T14:20:11;25.10;84.90
9762;DHT22;4920;49.594;11.022;2023-05-07T14:22:40;25.10;82.50
9762;DHT22;4920;49.594;11.022;2023-05-07T14:25:10;25.10;82.50
9762;DHT22;4920;49.594;11.022;2023-05-07T14:27:42;25.10;82.00
9762;DHT22;4920;49.594;11.022;2023-05-07T14:30:13;25.20;81.80
9762;DHT22;4920;49.594;11.022;2023-05-07T14:32:42;25.20;80.30
9762;DHT22;4920;49.594;11.022;2023-05-07T14:35:11;25.20;81.60
9762;DHT22;4920;49.594;11.022;2023-05-07T14:37:42;25.20;79.00
9762;DHT22;4920;49.594;11.022;2023-05-07T14:40:13;25.40;78.70
9762;DHT22;4920;49.594;11.022;2023-05-07T14:42:42;25.60;77.90
9762;DHT22;4920;49.594;11.022;2023-05-07T14:45:11;25.90;77.40
9762;DHT22;4920;49.594;11.022;2023-05-07T14:47:40;26.10;77.30
9762;DHT22;4920;49.594;11.022;2023-05-07T14:50:09;26.10;76.10
9762;DHT22;4920;49.594;11.022;2023-05-07T14:52:37;26.20;74.70
9762;DHT22;4920;49.594;11.022;2023-05-07T14:55:33;26.30;74.10
9762;DHT22;4920;49.594;11.022;2023-05-07T14:58:02;26.30;74.00
9762;DHT22;4920;49.594;11.022;2023-05-07T15:00:30;26.40;75.00
9762;DHT22;4920;49.594;11.022;2023-05-07T15:03:05;26.40;75.00
9762;DHT22;4920;49.594;11.022;2023-05-07T15:05:35;26.60;75.30
9762;DHT22;4920;49.594;11.022;2023-05-07T15:08:04;26.80;75.30
9762;DHT22;4920;49.594;11.022;2023-05-07T15:10:36;27.00;74.60
9762;DHT22;4920;49.594;11.022;2023-05-07T15:13:08;27.00;75.50
9762;DHT22;4920;49.594;11.022;2023-05-07T15:15:42;27.00;73.40
9762;DHT22;4920;49.594;11.022;2023-05-07T15:18:11;26.80;72.20
9762;DHT22;4920;49.594;11.022;2023-05-07T15:20:40;26.50;71.80
9762;DHT22;4920;49.594;11.022;2023-05-07T15:23:09;26.30;71.50
9762;DHT22;4920;49.594;11.022;2023-05-07T15:25:41;26.10;71.90
9762;DHT22;4920;49.594;11.022;2023-05-07T15:28:10;26.00;72.60
9762;DHT22;4920;49.594;11.022;2023-05-07T15:30:44;25.90;72.80
9762;DHT22;4920;49.594;11.022;2023-05-07T15:33:15;25.90;73.30
9762;DHT22;4920;49.594;11.022;2023-05-07T15:35:44;25.70;72.90
9762;DHT22;4920;49.594;11.022;2023-05-07T15:38:13;25.60;72.20
9762;DHT22;4920;49.594;11.022;2023-05-07T15:40:44;25.40;72.70
9762;DHT22;4920;49.594;11.022;2023-05-07T15:43:13;25.20;73.70
9762;DHT22;4920;49.594;11.022;2023-05-07T15:45:42;25.00;74.90
9762;DHT22;4920;49.594;11.022;2023-05-07T15:48:11;24.90;74.70
9762;DHT22;4920;49.594;11.022;2023-05-07T15:50:40;24.80;75.90
9762;DHT22;4920;49.594;11.022;2023-05-07T15:53:09;24.70;75.60
9762;DHT22;4920;49.594;11.022;2023-05-07T15:55:41;24.70;75.10
9762;DHT22;4920;49.594;11.022;2023-05-07T15:58:12;24.60;74.60
9762;DHT22;4920;49.594;11.022;2023-05-07T16:00:40;24.50;75.00
9762;DHT22;4920;49.594;11.022;2023-05-07T16:03:09;24.50;76.20
9762;DHT22;4920;49.594;11.022;2023-05-07T16:05:38;24.50;75.70
9762;DHT22;4920;49.594;11.022;2023-05-07T16:08:07;24.40;76.20
9762;DHT22;4920;49.594;11.022;2023-05-07T16:10:35;24.20;77.50
9762;DHT22;4920;49.594;11.022;2023-05-07T16:13:04;24.00;78.50
9762;DHT22;4920;49.594;11.022;2023-05-07T16:15:34;23.80;79.40
9762;DHT22;4920;49.594;11.022;2023-05-07T16:18:03;23.80;80.00